Time;durP1;ratioP1;P1;durP2;ratioP2;P2;SDS_P1;SDS_P2;PMS_P1;PMS_P2;Temp;Humidity;BMP_temperature;BMP_pressure;BME280_temperature;BME280_humidity;BME280_pressure;Samples;Min_cycle;Max_cycle;Signal;HPM_P1;HPM_P2
2022/03/29 00:01:15;;;;;;;31.48;15.07;;;;;;;8.18;53.27;98910.63;5225497;28;20126;-67
2022/03/29 00:04:06;;;;;;;32.88;14.30;;;;;;;8.32;52.10;98931.41;5209680;28;20070;-67
2022/03/29 00:06:57;;;;;;;29.60;15.02;;;;;;;8.38;52.06;98933.56;5225113;28;20274;-66
2022/03/29 00:09:47;;;;;;;31.95;15.45;;;;;;;8.49;53.28;98930.00;5225293;28;20161;-67
2022/03/29 00:12:37;;;;;;;32.20;15.00;;;;;;;8.28;52.94;98922.09;5225438;28;20061;-66
2022/03/29 00:15:28;;;;;;;45.78;15.73;;;;;;;8.31;53.54;98918.31;5210886;28;20132;-66
2022/03/29 00:18:18;;;;;;;33.05;15.07;;;;;;;8.41;52.37;98900.75;5209808;28;20072;-66
2022/03/29 00:21:08;;;;;;;33.42;14.63;;;;;;;8.31;51.90;98915.69;5225141;28;20041;-67
2022/03/29 00:23:59;;;;;;;40.42;14.90;;;;;;;8.22;52.77;98912.03;5225081;28;20131;-66
2022/03/29 00:26:49;;;;;;;38.72;14.07;;;;;;;8.26;53.76;98904.69;5224077;28;20445;-66
2022/03/29 00:29:39;;;;;;;29.45;15.02;;;;;;;8.43;51.48;98894.38;5224841;28;20083;-66
2022/03/29 00:32:29;;;;;;;30.98;14.88;;;;;;;8.20;52.21;98871.69;5224519;28;20142;-66
2022/03/29 00:35:20;;;;;;;30.30;14.68;;;;;;;8.42;52.36;98891.88;5224649;28;20518;-67
2022/03/29 00:38:09;;;;;;;32.08;13.70;;;;;;;8.19;52.33;98893.81;5224718;28;20060;-66
2022/03/29 00:41:00;;;;;;;28.98;15.02;;;;;;;8.01;53.22;98872.44;5224281;28;20498;-67
2022/03/29 00:43:50;;;;;;;26.15;14.02;;;;;;;8.16;52.52;98886.97;5224176;28;20143;-66
2022/03/29 00:46:40;;;;;;;30.10;14.65;;;;;;;8.06;52.65;98883.44;5217746;28;20053;-66
2022/03/29 00:49:30;;;;;;;27.65;13.68;;;;;;;8.13;52.73;98881.97;5221224;28;20510;-66
2022/03/29 00:52:22;;;;;;;35.03;14.95;;;;;;;8.07;52.77;98876.38;5224380;28;20063;-66
2022/03/29 00:55:15;;;;;;;27.73;14.43;;;;;;;8.06;53.61;98864.97;5209278;28;20068;-67
2022/03/29 00:58:09;;;;;;;31.73;15.15;;;;;;;8.18;52.99;98868.38;5224267;28;20124;-67
2022/03/29 01:01:01;;;;;;;29.80;14.68;;;;;;;7.95;54.17;98867.69;5224109;28;20045;-67
2022/03/29 01:03:51;;;;;;;34.35;15.25;;;;;;;7.73;55.36;98858.94;5223713;28;20053;-66
2022/03/29 01:06:45;;;;;;;32.50;15.00;;;;;;;7.99;55.80;98848.81;5223614;28;20057;-66
2022/03/29 01:09:35;;;;;;;31.27;14.23;;;;;;;8.17;54.34;98849.03;5224234;28;20049;-66
2022/03/29 01:12:28;;;;;;;27.95;14.05;;;;;;;7.89;54.71;98840.00;5209692;28;20123;-67
2022/03/29 01:15:19;;;;;;;30.42;14.38;;;;;;;7.74;57.63;98849.22;5224028;28;20049;-67
2022/03/29 01:18:10;;;;;;;41.67;15.48;;;;;;;7.96;57.36;98840.31;5223783;28;20049;-65
2022/03/29 01:21:03;;;;;;;36.40;17.02;;;;;;;7.98;57.88;98841.88;5223946;28;20084;-67
2022/03/29 01:23:53;;;;;;;28.67;15.55;;;;;;;8.07;56.54;98831.47;5223500;28;20453;-66
2022/03/29 01:26:43;;;;;;;38.25;16.00;;;;;;;8.00;56.88;98821.44;5223751;28;20071;-66
2022/03/29 01:29:35;;;;;;;37.53;15.45;;;;;;;8.07;56.26;98828.84;5223379;28;20411;-67
2022/03/29 01:32:29;;;;;;;32.55;14.38;;;;;;;7.93;55.29;98830.84;5209815;28;20190;-67
2022/03/29 01:35:22;;;;;;;30.08;13.88;;;;;;;7.86;55.19;98819.16;5223511;28;20422;-66
2022/03/29 01:38:12;;;;;;;38.00;14.77;;;;;;;7.85;56.21;98814.00;5223728;28;20057;-66
2022/03/29 01:41:05;;;;;;;35.55;14.75;;;;;;;7.76;57.24;98810.34;5223665;28;20115;-66
2022/03/29 01:43:55;;;;;;;27.42;14.48;;;;;;;7.90;55.76;98807.34;5223029;28;20045;-67
2022/03/29 01:46:45;;;;;;;31.05;15.70;;;;;;;7.83;55.39;98793.00;5208627;28;20051;-68
2022/03/29 01:49:37;;;;;;;32.95;14.90;;;;;;;7.82;55.97;98801.06;5208552;28;20510;-67
2022/03/29 01:52:27;;;;;;;26.42;14.50;;;;;;;7.81;56.27;98796.75;5208359;28;20439;-66
2022/03/29 01:55:19;;;;;;;35.13;15.23;;;;;;;7.73;55.80;98790.31;5223486;28;20076;-67
2022/03/29 01:58:09;;;;;;;28.52;13.57;;;;;;;7.69;55.75;98794.19;5223370;28;20055;-67
2022/03/29 02:01:00;;;;;;;32.60;14.18;;;;;;;7.57;55.95;98773.28;5208170;28;20064;-66
2022/03/29 02:03:51;;;;;;;31.30;14.57;;;;;;;7.65;57.16;98792.78;5222966;28;20134;-67
2022/03/29 02:06:41;;;;;;;34.33;14.50;;;;;;;7.71;56.53;98791.41;5208404;28;20048;-66
2022/03/29 02:09:31;;;;;;;29.10;14.57;;;;;;;7.72;56.16;98785.19;5223439;28;20142;-66
2022/03/29 02:12:21;;;;;;;30.35;14.77;;;;;;;7.78;56.12;98776.72;5222877;28;20640;-66
2022/03/29 02:15:11;;;;;;;36.47;14.32;;;;;;;7.76;56.48;98783.94;5222841;28;20061;-65
2022/03/29 02:18:01;;;;;;;26.55;14.25;;;;;;;7.57;56.41;98771.47;5223039;28;20103;-66
2022/03/29 02:20:52;;;;;;;29.13;13.77;;;;;;;7.50;56.80;98779.06;5194481;28;20098;-66
2022/03/29 02:23:42;;;;;;;34.97;14.95;;;;;;;7.48;57.30;98766.97;5222771;28;20060;-68
2022/03/29 02:26:32;;;;;;;26.38;14.30;;;;;;;7.53;57.04;98773.53;5222895;28;20052;-66
2022/03/29 02:29:22;;;;;;;34.83;14.43;;;;;;;7.49;56.90;98776.59;5207900;28;20076;-66
2022/03/29 02:32:12;;;;;;;34.25;13.73;;;;;;;7.41;56.06;98769.28;5223137;28;20053;-66
2022/03/29 02:35:03;;;;;;;24.38;12.88;;;;;;;7.40;56.05;98777.34;5223077;28;20041;-67
2022/03/29 02:37:53;;;;;;;31.70;14.93;;;;;;;7.23;57.35;98749.75;5222768;28;20053;-68
2022/03/29 02:40:44;;;;;;;30.52;13.30;;;;;;;7.30;56.54;98756.19;5207667;28;20076;-67
2022/03/29 02:43:34;;;;;;;30.05;13.52;;;;;;;7.33;56.80;98766.47;5212885;28;20053;-67
2022/03/29 02:46:24;;;;;;;34.45;13.52;;;;;;;7.48;56.69;98759.06;5226990;28;20151;-67
2022/03/29 02:49:14;;;;;;;30.88;14.45;;;;;;;7.21;57.27;98752.50;5226706;28;20044;-67
2022/03/29 02:52:05;;;;;;;28.90;15.13;;;;;;;7.43;58.41;98774.44;5226756;28;20056;-67
2022/03/29 02:54:55;;;;;;;32.65;14.65;;;;;;;7.32;59.39;98775.38;5226680;28;20126;-66
2022/03/29 02:57:46;;;;;;;35.90;14.95;;;;;;;7.50;56.77;98773.78;5226758;28;20114;-66
2022/03/29 03:00:36;;;;;;;34.70;14.93;;;;;;;7.74;55.63;98764.75;5226799;28;20163;-66
2022/03/29 03:03:26;;;;;;;25.25;14.18;;;;;;;7.69;55.84;98766.97;5225305;28;20158;-67
2022/03/29 03:06:16;;;;;;;27.90;15.27;;;;;;;7.46;57.64;98759.19;5211290;28;20064;-66
2022/03/29 03:09:08;;;;;;;27.67;14.73;;;;;;;7.38;57.12;98737.06;5226725;28;20053;-66
2022/03/29 03:11:58;;;;;;;25.58;14.18;;;;;;;7.49;57.14;98737.00;5226771;28;20044;-67
2022/03/29 03:14:48;;;;;;;33.28;13.82;;;;;;;7.23;57.32;98742.69;5226175;28;20053;-67
2022/03/29 03:17:39;;;;;;;30.85;14.30;;;;;;;7.12;57.89;98736.63;5211008;28;20723;-67
2022/03/29 03:20:29;;;;;;;31.52;14.38;;;;;;;7.23;57.34;98740.03;5226236;28;20063;-68
2022/03/29 03:23:20;;;;;;;38.00;14.50;;;;;;;7.34;57.52;98741.75;5226168;28;20123;-68
2022/03/29 03:26:10;;;;;;;30.48;15.63;;;;;;;7.25;57.82;98734.63;5212594;28;20130;-67
2022/03/29 03:28:59;;;;;;;31.23;15.02;;;;;;;7.28;58.20;98739.63;5226187;28;20426;-67
2022/03/29 03:31:49;;;;;;;29.23;14.27;;;;;;;7.28;57.76;98742.28;5226083;28;20056;-66
2022/03/29 03:34:41;;;;;;;27.00;13.57;;;;;;;7.02;57.83;98710.22;5225914;28;20056;-67
2022/03/29 03:37:31;;;;;;;27.13;13.32;;;;;;;7.15;57.04;98720.53;5225986;28;20060;-67
2022/03/29 03:40:21;;;;;;;31.95;13.57;;;;;;;7.32;57.06;98733.16;5225918;28;20041;-69
2022/03/29 03:43:11;;;;;;;27.05;14.18;;;;;;;7.25;56.89;98710.88;5210733;28;20652;-66
2022/03/29 03:46:02;;;;;;;29.45;15.05;;;;;;;7.32;56.58;98719.13;5209570;28;20056;-68
2022/03/29 03:48:52;;;;;;;25.38;14.02;;;;;;;7.17;55.90;98726.53;5225876;28;20130;-68
2022/03/29 03:51:42;;;;;;;29.10;14.27;;;;;;;7.07;57.08;98729.94;5225900;28;20056;-67
2022/03/29 03:54:36;;;;;;;30.58;14.10;;;;;;;7.13;57.21;98727.75;5225016;28;20055;-67
2022/03/29 03:57:26;;;;;;;31.83;14.13;;;;;;;7.14;57.13;98721.50;5225762;28;20060;-66
2022/03/29 04:00:17;;;;;;;24.52;13.65;;;;;;;6.95;56.28;98720.41;5210275;28;20049;-67
2022/03/29 04:03:09;;;;;;;27.55;14.60;;;;;;;7.06;57.63;98715.09;5225478;28;20061;-67
2022/03/29 04:05:59;;;;;;;24.90;13.75;;;;;;;6.90;57.16;98709.41;5224982;28;20059;-68
2022/03/29 04:08:49;;;;;;;35.03;14.15;;;;;;;6.88;57.70;98713.97;5224969;28;20516;-68
2022/03/29 04:11:39;;;;;;;27.45;13.30;;;;;;;6.86;58.05;98715.09;5210407;28;20056;-67
2022/03/29 04:14:29;;;;;;;31.13;14.00;;;;;;;6.87;58.78;98707.03;5224545;28;20060;-67
2022/03/29 04:17:19;;;;;;;39.83;14.18;;;;;;;6.93;58.61;98705.69;5224961;28;20045;-67
2022/03/29 04:20:10;;;;;;;28.85;12.73;;;;;;;7.10;57.68;98707.75;5225261;28;20045;-67
2022/03/29 04:23:00;;;;;;;33.72;14.63;;;;;;;7.17;56.83;98706.28;5224785;28;20063;-68
2022/03/29 04:25:51;;;;;;;25.20;13.77;;;;;;;6.99;58.35;98694.66;5224665;28;20056;-67
2022/03/29 04:28:41;;;;;;;30.10;14.20;;;;;;;6.96;57.11;98679.91;5223713;28;20151;-68
2022/03/29 04:31:31;;;;;;;26.20;13.30;;;;;;;6.44;58.80;98678.13;5209350;28;20037;-68
2022/03/29 04:34:22;;;;;;;32.85;13.95;;;;;;;6.67;58.24;98697.31;5224687;28;20060;-68
2022/03/29 04:37:11;;;;;;;25.15;13.73;;;;;;;6.57;58.18;98694.59;5224720;28;20678;-68
2022/03/29 04:40:08;;;;;;;23.95;12.93;;;;;;;6.77;59.00;98699.06;5224848;28;20597;-66
2022/03/29 04:43:00;;;;;;;25.60;13.73;;;;;;;6.86;57.69;98691.38;5223244;28;20419;-69
2022/03/29 04:45:50;;;;;;;31.83;14.50;;;;;;;6.74;58.25;98690.56;5220192;28;20049;-66
2022/03/29 04:48:40;;;;;;;26.30;12.73;;;;;;;6.54;57.49;98682.50;5221494;28;20545;-64
2022/03/29 04:51:34;;;;;;;30.80;14.73;;;;;;;6.96;57.92;98673.81;5207558;28;20135;-66
2022/03/29 04:54:24;;;;;;;31.17;14.95;;;;;;;6.53;59.08;98664.22;5220841;28;20057;-66
2022/03/29 04:57:13;;;;;;;30.58;15.32;;;;;;;6.52;59.40;98671.28;5221519;28;20052;-65
2022/03/29 05:00:05;;;;;;;29.85;14.63;;;;;;;6.67;58.70;98668.34;5218255;28;20046;-66
2022/03/29 05:02:55;;;;;;;31.70;14.85;;;;;;;6.61;58.90;98674.94;5203969;28;20214;-65
2022/03/29 05:05:45;;;;;;;35.63;15.00;;;;;;;6.55;59.16;98671.00;5219054;28;20087;-66
2022/03/29 05:08:36;;;;;;;31.75;15.15;;;;;;;6.60;59.10;98662.75;5221051;28;20052;-66
2022/03/29 05:11:27;;;;;;;25.83;14.80;;;;;;;6.69;59.50;98672.53;5219065;28;20102;-64
2022/03/29 05:14:17;;;;;;;31.48;14.65;;;;;;;6.67;58.80;98668.34;5219128;28;20206;-66
2022/03/29 05:17:07;;;;;;;36.83;15.30;;;;;;;6.56;60.41;98675.31;5215031;28;20060;-67
2022/03/29 05:19:58;;;;;;;35.78;14.50;;;;;;;6.69;59.56;98666.38;5217437;28;20059;-66
2022/03/29 05:22:50;;;;;;;39.10;15.35;;;;;;;6.79;59.51;98669.97;5222422;28;20052;-66
2022/03/29 05:25:40;;;;;;;46.00;16.10;;;;;;;6.74;59.31;98672.97;5214084;28;20052;-65
2022/03/29 05:28:31;;;;;;;37.20;15.43;;;;;;;6.76;59.79;98667.59;5216224;28;20122;-65
2022/03/29 05:31:21;;;;;;;49.35;15.82;;;;;;;6.78;59.59;98670.91;5222055;28;20056;-65
2022/03/29 05:34:13;;;;;;;42.08;15.23;;;;;;;6.69;60.11;98651.44;5223484;28;20093;-66
2022/03/29 05:37:03;;;;;;;40.92;15.85;;;;;;;6.98;58.57;98666.59;5223870;28;20055;-65
2022/03/29 05:39:53;;;;;;;41.20;15.52;;;;;;;6.86;58.40;98668.47;5222020;28;20049;-65
2022/03/29 05:42:44;;;;;;;38.28;14.95;;;;;;;6.82;57.26;98680.22;5222975;28;20128;-65
2022/03/29 05:45:34;;;;;;;46.45;16.45;;;;;;;6.83;58.86;98689.81;5220956;28;20041;-65
2022/03/29 05:51:33;;;;;;;50.08;15.48;;;;;;;7.36;58.05;98681.81;5221797;28;20075;-65
2022/03/29 05:54:23;;;;;;;46.63;17.48;;;;;;;7.01;59.15;98687.44;5207893;28;20190;-65
2022/03/29 05:57:14;;;;;;;52.40;16.30;;;;;;;7.14;59.06;98679.31;5222199;28;20068;-66
2022/03/29 06:00:08;;;;;;;61.10;17.15;;;;;;;7.14;60.08;98668.78;5204800;28;20056;-66
2022/03/29 06:03:05;;;;;;;57.90;16.35;;;;;;;7.43;58.98;98672.41;5222349;28;20051;-66
2022/03/29 06:05:56;;;;;;;46.35;15.77;;;;;;;7.39;58.48;98641.16;5222934;28;20063;-65
2022/03/29 06:08:46;;;;;;;69.30;17.35;;;;;;;7.53;59.86;98675.94;5216163;28;20053;-66
2022/03/29 06:11:37;;;;;;;73.32;18.27;;;;;;;7.48;60.31;98675.50;5222879;28;20084;-66
2022/03/29 06:14:27;;;;;;;65.95;17.05;;;;;;;7.56;60.68;98672.19;5222526;28;20068;-65
2022/03/29 06:17:17;;;;;;;87.00;17.88;;;;;;;7.66;59.29;98666.97;5222457;28;20674;-66
2022/03/29 06:20:11;;;;;;;70.78;17.23;;;;;;;7.70;59.40;98677.09;5223115;28;20107;-65
2022/03/29 06:23:02;;;;;;;57.53;17.17;;;;;;;7.86;59.54;98679.25;5222734;28;20191;-65
2022/03/29 06:25:54;;;;;;;73.78;19.10;;;;;;;8.33;58.02;98689.22;5222176;28;20102;-68
2022/03/29 06:28:44;;;;;;;63.97;18.77;;;;;;;8.33;58.86;98686.56;5222698;28;20136;-65
2022/03/29 06:31:35;;;;;;;53.38;16.95;;;;;;;8.01;59.11;98687.59;5221555;28;20047;-65
2022/03/29 06:34:26;;;;;;;38.85;16.13;;;;;;;8.07;59.73;98681.78;5223109;28;20056;-65
2022/03/29 06:37:16;;;;;;;38.35;16.02;;;;;;;8.23;59.02;98682.09;5219215;28;20132;-65
2022/03/29 06:40:07;;;;;;;42.15;16.50;;;;;;;8.43;57.95;98684.81;5202502;28;20060;-66
2022/03/29 06:42:58;;;;;;;38.83;16.40;;;;;;;8.42;59.08;98686.63;5222305;28;20132;-65
2022/03/29 06:45:48;;;;;;;36.20;15.52;;;;;;;8.67;56.71;98687.03;5203372;28;20191;-65
2022/03/29 06:48:41;;;;;;;36.72;14.80;;;;;;;8.45;58.47;98688.16;5221774;28;20049;-65
2022/03/29 06:51:33;;;;;;;35.75;15.73;;;;;;;8.94;57.61;98697.75;5220721;28;20132;-65
2022/03/29 06:54:23;;;;;;;38.30;15.75;;;;;;;9.25;56.87;98696.72;5222216;28;20087;-65
2022/03/29 06:57:15;;;;;;;32.85;14.90;;;;;;;9.14;56.39;98682.69;5221830;28;20503;-65
2022/03/29 07:00:07;;;;;;;34.28;14.48;;;;;;;8.88;57.11;98692.19;5207456;28;20053;-65
2022/03/29 07:02:57;;;;;;;33.28;15.55;;;;;;;9.18;56.14;98683.25;5222784;28;20522;-65
2022/03/29 07:05:48;;;;;;;34.13;15.38;;;;;;;9.29;57.30;98685.72;5220814;28;20092;-65
2022/03/29 07:11:16;;;;;;;36.15;15.00;;;;;;;9.24;56.34;98680.03;5222388;28;20053;-65
2022/03/29 07:12:09;;;;;;;31.75;15.00;;;;;;;9.44;55.58;98680.81;5221923;28;20060;-65
2022/03/29 07:15:00;;;;;;;33.75;14.57;;;;;;;9.39;56.25;98664.50;5221480;28;20131;-65
2022/03/29 07:17:50;;;;;;;37.85;14.90;;;;;;;9.64;55.74;98678.94;5221299;28;20550;-65
2022/03/29 07:20:41;;;;;;;36.90;16.00;;;;;;;9.73;54.46;98672.72;5222118;28;20056;-65
2022/03/29 07:23:31;;;;;;;33.47;15.48;;;;;;;9.80;54.16;98683.56;5221726;28;20179;-65
2022/03/29 07:26:21;;;;;;;28.05;14.63;;;;;;;9.89;53.98;98667.63;5218597;28;20041;-65
2022/03/29 07:29:12;;;;;;;34.90;15.70;;;;;;;10.29;53.48;98679.69;5223282;28;20190;-65
2022/03/29 07:32:02;;;;;;;38.35;15.95;;;;;;;10.47;53.74;98678.91;5224413;28;20052;-65
2022/03/29 07:34:54;;;;;;;30.60;15.38;;;;;;;10.55;53.92;98679.81;5224539;28;20055;-65
2022/03/29 07:37:44;;;;;;;36.05;14.95;;;;;;;10.39;53.83;98686.75;5208042;28;20148;-65
2022/03/29 07:40:35;;;;;;;31.27;14.63;;;;;;;9.98;54.80;98670.41;5225113;28;20107;-65
2022/03/29 07:43:25;;;;;;;44.03;15.23;;;;;;;10.64;54.94;98679.91;5225059;28;20052;-65
2022/03/29 07:46:15;;;;;;;49.83;16.20;;;;;;;10.98;51.74;98686.13;5225542;28;20045;-66
2022/03/29 07:49:05;;;;;;;45.45;16.85;;;;;;;11.31;51.31;98680.25;5220130;28;20230;-66
2022/03/29 07:52:15;;;;;;;48.92;16.27;;;;;;;11.29;51.63;98677.72;5224889;28;20521;-65
2022/03/29 07:55:08;;;;;;;51.30;16.20;;;;;;;11.36;51.53;98681.44;5224680;28;20048;-65
2022/03/29 07:58:19;;;;;;;37.70;16.40;;;;;;;11.41;51.00;98678.31;5224514;28;20052;-65
2022/03/29 08:01:09;;;;;;;39.22;15.38;;;;;;;11.82;50.65;98676.72;5221323;28;20126;-66
2022/03/29 08:04:00;;;;;;;40.25;17.58;;;;;;;12.57;48.80;98674.13;5225631;28;20724;-65
2022/03/29 08:06:50;;;;;;;42.60;15.50;;;;;;;12.60;48.72;98668.47;5224933;28;20131;-66
2022/03/29 08:09:41;;;;;;;42.58;16.48;;;;;;;12.98;47.60;98657.31;5220558;28;20056;-66
2022/03/29 08:12:31;;;;;;;59.17;17.25;;;;;;;13.43;46.59;98658.63;5224038;28;20438;-65
2022/03/29 08:15:21;;;;;;;49.10;17.17;;;;;;;13.62;48.10;98664.41;5224448;28;20210;-65
2022/03/29 08:18:17;;;;;;;53.53;16.67;;;;;;;13.46;47.62;98653.81;5209977;28;20052;-66
2022/03/29 08:24:20;;;;;;;46.03;17.58;;;;;;;14.20;44.84;98664.16;5224512;28;20422;-66
2022/03/29 08:27:11;;;;;;;47.45;17.40;;;;;;;13.98;46.03;98655.13;5220861;28;20076;-66
2022/03/29 08:30:02;;;;;;;44.00;17.42;;;;;;;13.85;45.73;98653.00;5223738;28;20431;-66
2022/03/29 08:32:53;;;;;;;49.63;17.55;;;;;;;13.92;46.06;98663.81;5224401;28;20115;-67
2022/03/29 08:35:51;;;;;;;38.65;17.40;;;;;;;13.88;47.01;98650.00;5209579;28;20056;-66
2022/03/29 08:38:41;;;;;;;41.53;17.70;;;;;;;15.21;44.50;98666.63;5223169;28;21076;-66
2022/03/29 08:41:43;;;;;;;40.97;17.98;;;;;;;15.43;44.81;98669.41;5224778;28;20041;-66
2022/03/29 08:44:34;;;;;;;47.28;18.98;;;;;;;15.15;43.30;98674.53;5224616;28;20524;-67
2022/03/29 08:47:25;;;;;;;38.15;17.02;;;;;;;15.35;43.96;98675.66;5224656;28;20055;-65
2022/03/29 08:50:16;;;;;;;43.45;17.88;;;;;;;15.96;43.50;98665.66;5209399;28;20518;-67
2022/03/29 08:53:07;;;;;;;48.85;17.15;;;;;;;16.33;42.12;98661.16;5192356;28;20053;-67
2022/03/29 08:55:58;;;;;;;39.88;17.42;;;;;;;16.21;40.54;98662.66;5224511;28;20051;-67
2022/03/29 08:58:49;;;;;;;50.88;17.98;;;;;;;16.25;41.64;98665.78;5215640;28;20049;-67
2022/03/29 09:01:40;;;;;;;44.22;17.65;;;;;;;16.43;41.30;98660.88;5224405;28;20052;-67
2022/03/29 09:04:30;;;;;;;33.05;16.33;;;;;;;16.01;40.90;98670.44;5216501;28;20051;-67
2022/03/29 09:07:20;;;;;;;38.20;17.48;;;;;;;16.21;41.76;98662.66;5223240;28;20063;-67
2022/03/29 09:10:12;;;;;;;36.15;17.23;;;;;;;15.98;42.09;98654.78;5223883;28;20156;-67
2022/03/29 09:13:15;;;;;;;40.53;17.40;;;;;;;16.03;41.96;98655.06;5223886;28;20657;-65
2022/03/29 09:16:09;;;;;;;35.40;17.35;;;;;;;15.89;42.44;98655.88;5223706;28;20469;-65
2022/03/29 09:18:59;;;;;;;37.25;17.42;;;;;;;15.07;43.11;98664.75;5224039;28;20056;-66
2022/03/29 09:21:51;;;;;;;46.40;17.52;;;;;;;16.13;40.78;98636.03;5223538;28;20048;-66
2022/03/29 09:24:54;;;;;;;42.05;18.85;;;;;;;16.49;40.52;98649.41;5219877;28;20056;-66
2022/03/29 09:27:56;;;;;;;39.53;17.98;;;;;;;16.78;40.52;98651.16;5216671;28;20045;-66
2022/03/29 09:30:51;;;;;;;40.05;19.17;;;;;;;16.76;38.90;98649.69;5206574;28;20110;-66
2022/03/29 09:33:43;;;;;;;59.47;20.02;;;;;;;17.32;38.53;98637.19;5223464;28;20490;-65
2022/03/29 09:36:46;;;;;;;48.67;19.38;;;;;;;17.30;38.80;98625.81;5223450;28;20087;-66
2022/03/29 09:39:40;;;;;;;38.13;18.73;;;;;;;17.38;40.44;98631.03;5222861;28;20056;-66
2022/03/29 09:42:30;;;;;;;39.97;19.63;;;;;;;17.92;39.24;98626.81;5223379;28;20056;-66
2022/03/29 09:45:41;;;;;;;41.20;19.85;;;;;;;17.38;39.74;98624.81;5219523;28;20302;-66
2022/03/29 09:48:36;;;;;;;45.63;19.92;;;;;;;17.78;40.10;98622.38;5220592;28;20049;-66
2022/03/29 09:51:28;;;;;;;56.97;20.55;;;;;;;17.51;38.05;98624.06;5222973;28;20045;-66
2022/03/29 09:54:18;;;;;;;49.75;21.17;;;;;;;17.76;37.89;98603.84;5218029;28;20106;-66
2022/03/29 09:57:09;;;;;;;43.70;20.75;;;;;;;17.63;36.90;98602.91;5223274;28;20045;-66
2022/03/29 10:00:00;;;;;;;42.67;21.48;;;;;;;18.15;39.45;98602.34;5222583;28;20519;-66
2022/03/29 10:02:50;;;;;;;47.55;21.83;;;;;;;18.06;37.88;98587.44;5220022;28;20067;-66
2022/03/29 10:05:42;;;;;;;43.33;20.60;;;;;;;17.94;37.00;98589.88;5222616;28;20530;-66
2022/03/29 10:11:46;;;;;;;43.53;21.08;;;;;;;17.37;38.16;98586.47;5222536;28;20049;-66
2022/03/29 10:14:39;;;;;;;49.35;22.67;;;;;;;17.50;37.63;98583.03;5222402;28;20049;-66
2022/03/29 10:17:30;;;;;;;54.97;23.48;;;;;;;17.80;38.57;98551.44;5222708;28;20057;-66
2022/03/29 10:20:20;;;;;;;51.40;22.58;;;;;;;18.15;37.04;98575.50;5223176;28;20056;-66
2022/03/29 10:23:14;;;;;;;42.60;21.05;;;;;;;17.47;37.82;98564.69;5221737;28;20499;-66
2022/03/29 10:26:05;;;;;;;45.22;21.58;;;;;;;18.54;35.88;98564.00;5208014;28;20052;-66
2022/03/29 10:28:55;;;;;;;48.35;21.42;;;;;;;19.36;37.71;98561.06;5222936;28;20052;-66
2022/03/29 10:31:50;;;;;;;48.72;21.55;;;;;;;19.60;35.05;98555.00;5222405;28;20040;-66
2022/03/29 10:34:42;;;;;;;45.50;22.00;;;;;;;18.82;34.27;98551.44;5208778;28;20049;-66
2022/03/29 10:37:56;;;;;;;39.92;19.80;;;;;;;19.63;35.41;98549.19;5202841;28;20092;-66
2022/03/29 10:40:46;;;;;;;39.33;20.33;;;;;;;19.68;33.91;98545.88;5222914;28;20122;-66
2022/03/29 10:43:35;;;;;;;42.85;22.25;;;;;;;20.23;32.59;98540.00;5222272;28;20044;-66
2022/03/29 10:46:38;;;;;;;39.30;21.15;;;;;;;20.21;33.14;98540.22;5221730;28;20049;-66
2022/03/29 10:49:32;;;;;;;51.78;21.98;;;;;;;20.82;36.84;98536.06;5222320;28;20041;-66
2022/03/29 10:52:22;;;;;;;;;;;;;;;20.89;32.19;98526.03;5221794;28;20491;-66
2022/03/29 10:55:17;;;;;;;46.50;21.45;;;;;;;19.71;34.40;98521.25;5221430;28;19925;-66
2022/03/29 10:58:10;;;;;;;41.40;20.85;;;;;;;19.22;34.66;98510.03;5222467;28;20095;-66
2022/03/29 11:01:16;;;;;;;52.03;23.70;;;;;;;19.31;34.45;98510.63;5221522;28;20138;-67
2022/03/29 11:04:17;;;;;;;44.95;21.48;;;;;;;20.29;32.26;98506.81;5219496;28;20179;-67
2022/03/29 11:07:11;;;;;;;45.72;21.27;;;;;;;20.15;33.49;98498.03;5217688;28;20060;-66
2022/03/29 11:10:16;;;;;;;48.72;21.17;;;;;;;19.81;32.74;98486.66;5226928;28;20052;-66
2022/03/29 11:13:28;;;;;;;44.13;21.88;;;;;;;19.24;33.37;98478.41;5216354;28;20125;-66
2022/03/29 11:16:31;;;;;;;47.83;21.88;;;;;;;19.71;33.90;98473.66;5225927;28;20049;-67
2022/03/29 11:19:42;;;;;;;49.78;22.02;;;;;;;20.34;33.33;98466.63;5225349;28;20080;-67
2022/03/29 11:22:34;;;;;;;45.42;21.17;;;;;;;20.72;33.11;98460.28;5208940;28;20053;-67
2022/03/29 11:25:24;;;;;;;40.90;21.05;;;;;;;20.04;33.65;98450.28;5224979;28;20049;-66
2022/03/29 11:28:17;;;;;;;50.45;22.30;;;;;;;19.86;32.90;98448.31;5223802;28;20060;-67
2022/03/29 11:31:06;;;;;;;43.05;21.25;;;;;;;19.80;34.38;98438.41;5225334;28;20067;-67
2022/03/29 11:34:03;;;;;;;41.42;21.65;;;;;;;19.96;33.46;98445.97;5224712;28;20060;-67
2022/03/29 11:36:53;;;;;;;44.53;21.33;;;;;;;20.06;33.30;98440.09;5222679;28;20048;-67
2022/03/29 11:39:49;;;;;;;42.70;21.50;;;;;;;20.40;33.22;98418.09;5224837;28;20049;-66
2022/03/29 11:42:50;;;;;;;44.35;20.33;;;;;;;20.70;32.12;98438.16;5224737;28;20048;-66
2022/03/29 11:45:47;;;;;;;41.50;20.48;;;;;;;20.28;30.83;98440.56;5224679;28;20138;-67
2022/03/29 11:48:47;;;;;;;41.40;20.00;;;;;;;20.81;33.91;98440.09;5209555;28;20110;-68
2022/03/29 11:51:37;;;;;;;44.50;20.90;;;;;;;20.84;33.54;98436.97;5206160;28;20052;-67
2022/03/29 11:54:27;;;;;;;46.65;21.92;;;;;;;20.81;33.20;98435.53;5225552;28;20056;-67
2022/03/29 11:57:21;;;;;;;43.42;20.85;;;;;;;21.03;31.07;98411.69;5224063;28;20060;-66
2022/03/29 12:00:26;;;;;;;39.88;20.60;;;;;;;21.15;31.16;98417.13;5207741;28;20110;-66
2022/03/29 12:03:34;;;;;;;41.40;20.63;;;;;;;20.89;31.91;98418.25;5222284;28;20044;-68
2022/03/29 12:06:27;;;;;;;47.03;21.20;;;;;;;20.26;32.11;98411.16;5221199;28;20053;-68
2022/03/29 12:09:23;;;;;;;42.53;21.05;;;;;;;21.17;34.37;98400.72;5211036;28;20537;-67
2022/03/29 12:12:14;;;;;;;55.53;21.10;;;;;;;21.35;31.68;98404.22;5222972;28;20063;-68
2022/03/29 12:15:06;;;;;;;42.80;21.77;;;;;;;20.64;30.53;98388.69;5224975;28;20419;-68
2022/03/29 12:21:13;;;;;;;39.60;21.35;;;;;;;20.59;30.88;98380.44;5222230;28;20053;-67
2022/03/29 12:24:07;;;;;;;47.05;20.08;;;;;;;20.22;32.08;98377.66;5209920;28;20070;-67
2022/03/29 12:27:06;;;;;;;44.45;22.35;;;;;;;20.44;31.20;98375.41;5223787;28;20047;-68
2022/03/29 12:30:00;;;;;;;42.97;20.90;;;;;;;19.83;32.58;98357.28;5225354;28;20056;-67
2022/03/29 12:32:51;;;;;;;43.15;21.42;;;;;;;20.10;30.70;98361.44;5225259;28;20077;-68
2022/03/29 12:35:41;;;;;;;43.20;20.60;;;;;;;20.00;32.34;98358.41;5225198;28;20103;-67
2022/03/29 12:38:43;;;;;;;34.03;19.00;;;;;;;20.33;32.47;98346.50;5225062;28;20126;-68
2022/03/29 12:41:42;;;;;;;43.22;21.50;;;;;;;20.50;31.90;98346.75;5224233;28;20064;-67
2022/03/29 12:44:36;;;;;;;38.80;20.13;;;;;;;20.63;31.81;98343.94;5221338;28;20075;-67
2022/03/29 12:47:31;;;;;;;39.50;20.92;;;;;;;20.05;33.05;98345.09;5223337;28;20053;-67
2022/03/29 12:50:21;;;;;;;47.97;22.00;;;;;;;19.92;31.12;98329.06;5224949;28;20092;-68
2022/03/29 12:53:15;;;;;;;47.47;22.48;;;;;;;20.30;31.65;98325.44;5224895;28;20049;-67
2022/03/29 12:56:09;;;;;;;41.40;22.10;;;;;;;19.80;31.75;98314.69;5224725;28;20087;-67
2022/03/29 12:59:00;;;;;;;;;;;;;;;20.36;31.43;98313.75;5224862;28;20076;-67
2022/03/29 13:01:50;;;;;;;42.83;21.48;;;;;;;20.53;31.13;98309.47;5224533;28;19951;-66
2022/03/29 13:04:46;;;;;;;43.53;21.40;;;;;;;20.80;30.23;98301.06;5224503;28;20053;-67
2022/03/29 13:07:50;;;;;;;39.95;20.38;;;;;;;20.37;29.78;98293.88;5224324;28;20122;-67
2022/03/29 13:10:42;;;;;;;;;;;;;;;21.07;29.63;98288.88;5224937;28;20091;-68
2022/03/29 13:13:36;;;;;;;43.42;20.52;;;;;;;21.03;29.78;98281.47;5224267;28;19946;-68
2022/03/29 13:16:29;;;;;;;39.33;20.13;;;;;;;20.53;29.98;98282.53;5203906;28;20056;-67
2022/03/29 13:19:19;;;;;;;42.27;21.40;;;;;;;20.44;30.07;98267.69;5203772;28;20291;-67
2022/03/29 13:22:11;;;;;;;43.00;21.35;;;;;;;20.37;31.05;98230.06;5216794;28;20084;-67
2022/03/29 13:25:03;;;;;;;46.65;20.63;;;;;;;20.32;30.72;98270.28;5224062;28;20060;-68
2022/03/29 13:27:53;;;;;;;46.30;21.42;;;;;;;20.50;30.75;98258.72;5223534;28;20557;-68
2022/03/29 13:30:45;;;;;;;43.92;19.95;;;;;;;20.80;31.93;98255.25;5209425;28;20142;-67